Time;durP1;ratioP1;P1;durP2;ratioP2;P2;SDS_P1;SDS_P2;PMS_P1;PMS_P2;Temp;Humidity;BMP_temperature;BMP_pressure;BME280_temperature;BME280_humidity;BME280_pressure;Samples;Min_cycle;Max_cycle;Signal;HPM_P1;HPM_P2
2022/10/13 00:01:18;;;;;;;5.20;1.75;;;;;;;;;;2071416;28;20030;-74
2022/10/13 00:02:37;;;;;;;10.82;2.58;;;;;;;;;;2069723;28;20046;-75
2022/10/13 00:03:56;;;;;;;4.57;1.58;;;;;;;;;;2069308;28;20022;-73
2022/10/13 00:05:15;;;;;;;7.13;1.92;;;;;;;;;;2072435;28;20030;-74
2022/10/13 00:06:34;;;;;;;4.05;1.65;;;;;;;;;;2071443;28;20471;-76
2022/10/13 00:07:53;;;;;;;4.97;1.50;;;;;;;;;;2072306;28;20034;-73
2022/10/13 00:09:12;;;;;;;6.18;1.52;;;;;;;;;;2069505;28;20411;-74
2022/10/13 00:10:34;;;;;;;14.10;1.92;;;;;;;;;;2070601;28;20034;-73
2022/10/13 00:11:55;;;;;;;7.70;1.90;;;;;;;;;;2070140;28;20034;-75
2022/10/13 00:13:14;;;;;;;5.50;2.22;;;;;;;;;;2075768;28;20029;-73
2022/10/13 00:14:34;;;;;;;7.18;2.00;;;;;;;;;;2073843;28;20034;-74
2022/10/13 00:15:53;;;;;;;6.80;1.60;;;;;;;;;;2075819;28;20025;-74
2022/10/13 00:17:12;;;;;;;7.72;1.98;;;;;;;;;;2074563;28;20505;-74
2022/10/13 00:18:31;;;;;;;4.05;1.60;;;;;;;;;;2069191;28;20474;-75
2022/10/13 00:19:50;;;;;;;4.05;1.67;;;;;;;;;;2071403;28;20069;-73
2022/10/13 00:21:11;;;;;;;6.80;2.00;;;;;;;;;;2071587;28;20457;-74
2022/10/13 00:22:31;;;;;;;6.10;2.10;;;;;;;;;;2071118;28;20062;-72
2022/10/13 00:23:50;;;;;;;8.52;2.15;;;;;;;;;;2068174;28;20340;-72
2022/10/13 00:25:09;;;;;;;3.40;1.88;;;;;;;;;;2071686;28;20112;-74
2022/10/13 00:26:28;;;;;;;7.07;2.35;;;;;;;;;;2069923;28;20038;-72
2022/10/13 00:27:47;;;;;;;10.30;2.20;;;;;;;;;;2070676;28;20026;-73
2022/10/13 00:29:09;;;;;;;7.15;1.83;;;;;;;;;;2068219;28;20387;-73
2022/10/13 00:30:28;;;;;;;4.75;1.95;;;;;;;;;;2069327;28;20023;-74
2022/10/13 00:31:47;;;;;;;7.10;1.90;;;;;;;;;;2071635;28;20018;-73
2022/10/13 00:33:06;;;;;;;3.17;1.75;;;;;;;;;;2071206;28;20074;-73
2022/10/13 00:34:25;;;;;;;7.05;2.00;;;;;;;;;;2070143;28;20547;-74
2022/10/13 00:35:44;;;;;;;9.13;2.60;;;;;;;;;;2071705;28;20117;-73
2022/10/13 00:37:04;;;;;;;6.45;2.70;;;;;;;;;;2072510;28;20017;-72
2022/10/13 00:38:22;;;;;;;6.72;2.22;;;;;;;;;;2079327;28;20037;-73
2022/10/13 00:39:42;;;;;;;5.30;2.28;;;;;;;;;;2069313;28;20451;-72
2022/10/13 00:41:01;;;;;;;3.67;2.10;;;;;;;;;;2069548;28;20034;-73
2022/10/13 00:42:22;;;;;;;9.85;2.25;;;;;;;;;;2068411;28;20034;-74
2022/10/13 00:44:00;;;;;;;10.15;2.45;;;;;;;;;;2070883;28;20025;-73
2022/10/13 00:45:24;;;;;;;5.10;2.50;;;;;;;;;;2070564;28;20030;-74
2022/10/13 00:46:43;;;;;;;7.70;2.42;;;;;;;;;;2071140;28;20054;-73
2022/10/13 00:48:02;;;;;;;5.45;2.90;;;;;;;;;;2070748;28;20025;-72
2022/10/13 00:49:21;;;;;;;6.68;2.80;;;;;;;;;;2069738;28;20748;-73
2022/10/13 00:50:41;;;;;;;10.05;2.80;;;;;;;;;;2078056;28;20507;-72
2022/10/13 00:52:00;;;;;;;10.25;3.10;;;;;;;;;;2074206;28;20115;-72
2022/10/13 00:53:20;;;;;;;10.52;3.53;;;;;;;;;;2070490;28;20034;-73
2022/10/13 00:54:39;;;;;;;10.30;4.15;;;;;;;;;;2068662;28;20363;-72
2022/10/13 00:55:58;;;;;;;8.60;3.60;;;;;;;;;;2071816;28;20495;-73
2022/10/13 00:57:19;;;;;;;7.68;3.03;;;;;;;;;;2071299;28;20042;-72
2022/10/13 00:58:38;;;;;;;9.75;3.25;;;;;;;;;;2071303;28;20029;-73
2022/10/13 00:59:59;;;;;;;6.63;3.25;;;;;;;;;;2070325;28;20033;-73
2022/10/13 01:01:18;;;;;;;8.52;3.67;;;;;;;;;;2071530;28;20088;-72
2022/10/13 01:02:37;;;;;;;11.48;3.00;;;;;;;;;;2071308;28;20085;-73
2022/10/13 01:03:57;;;;;;;13.43;2.72;;;;;;;;;;2072964;28;20460;-73
2022/10/13 01:05:17;;;;;;;6.85;2.30;;;;;;;;;;2071941;28;20070;-73
2022/10/13 01:06:35;;;;;;;3.60;2.40;;;;;;;;;;2070727;28;20026;-73
2022/10/13 01:07:55;;;;;;;9.18;2.50;;;;;;;;;;2072840;28;20034;-73
2022/10/13 01:09:14;;;;;;;9.25;2.90;;;;;;;;;;2073801;28;20053;-73
2022/10/13 01:11:06;;;;;;;8.73;2.75;;;;;;;;;;2070867;28;20488;-73
2022/10/13 01:12:25;;;;;;;8.13;2.50;;;;;;;;;;2062507;28;20026;-73
2022/10/13 01:14:06;;;;;;;4.57;2.88;;;;;;;;;;2072122;28;20030;-73
2022/10/13 01:15:29;;;;;;;10.18;3.20;;;;;;;;;;2071408;28;20042;-72
2022/10/13 01:16:54;;;;;;;7.55;2.75;;;;;;;;;;2071757;28;20041;-73
2022/10/13 01:18:19;;;;;;;11.02;2.78;;;;;;;;;;2072314;28;20025;-73
2022/10/13 01:19:56;;;;;;;9.35;3.17;;;;;;;;;;2073274;28;20026;-73
2022/10/13 01:21:19;;;;;;;5.90;2.55;;;;;;;;;;2073389;28;20034;-72
2022/10/13 01:22:47;;;;;;;10.55;3.20;;;;;;;;;;2070349;28;20116;-73
2022/10/13 01:24:25;;;;;;;9.68;2.40;;;;;;;;;;2069780;28;20026;-72
2022/10/13 01:26:02;;;;;;;8.13;2.60;;;;;;;;;;2070582;28;20029;-72
2022/10/13 01:27:34;;;;;;;6.47;1.92;;;;;;;;;;2073204;28;20022;-76
2022/10/13 01:29:11;;;;;;;10.38;2.40;;;;;;;;;;2072987;28;20029;-73
2022/10/13 01:30:33;;;;;;;12.32;2.60;;;;;;;;;;2069412;28;20534;-72
2022/10/13 01:32:15;;;;;;;9.10;2.45;;;;;;;;;;2073718;28;20022;-73
2022/10/13 01:33:41;;;;;;;7.53;2.28;;;;;;;;;;2071980;28;20120;-72
2022/10/13 01:35:12;;;;;;;8.63;2.30;;;;;;;;;;2071646;28;20033;-73
2022/10/13 01:36:49;;;;;;;15.65;2.85;;;;;;;;;;2071538;28;20379;-72
2022/10/13 01:38:15;;;;;;;5.97;2.40;;;;;;;;;;2072310;28;20033;-73
2022/10/13 01:39:36;;;;;;;7.57;2.42;;;;;;;;;;2071047;28;20113;-73
2022/10/13 01:41:01;;;;;;;12.20;2.47;;;;;;;;;;2072363;28;20487;-73
2022/10/13 01:42:31;;;;;;;6.05;2.00;;;;;;;;;;2071441;28;20030;-73
2022/10/13 01:44:07;;;;;;;7.05;2.15;;;;;;;;;;2069857;28;20023;-73
2022/10/13 01:45:33;;;;;;;10.93;2.42;;;;;;;;;;2070060;28;20074;-73
2022/10/13 01:46:53;;;;;;;10.18;2.13;;;;;;;;;;2070931;28;20042;-73
2022/10/13 01:48:14;;;;;;;11.52;2.65;;;;;;;;;;2070342;28;20030;-73
2022/10/13 01:49:34;;;;;;;9.02;2.20;;;;;;;;;;2072164;28;20054;-73
2022/10/13 01:50:54;;;;;;;8.32;2.13;;;;;;;;;;2071999;28;20022;-73
2022/10/13 01:52:14;;;;;;;6.75;2.13;;;;;;;;;;2069927;28;20042;-74
2022/10/13 01:53:34;;;;;;;5.07;2.35;;;;;;;;;;2071740;28;20021;-74
2022/10/13 01:54:53;;;;;;;8.63;2.47;;;;;;;;;;2070698;28;20033;-73
2022/10/13 01:56:16;;;;;;;7.60;1.92;;;;;;;;;;2073291;28;20502;-73
2022/10/13 01:57:37;;;;;;;7.57;2.50;;;;;;;;;;2073942;28;20395;-73
2022/10/13 01:58:57;;;;;;;10.25;2.83;;;;;;;;;;2072641;28;20034;-73
2022/10/13 02:00:18;;;;;;;9.23;2.33;;;;;;;;;;2070007;28;20026;-73
2022/10/13 02:01:40;;;;;;;2.53;1.90;;;;;;;;;;2072182;28;20038;-74
2022/10/13 02:03:11;;;;;;;9.53;2.10;;;;;;;;;;2072855;28;20531;-74
2022/10/13 02:04:54;;;;;;;8.10;2.22;;;;;;;;;;2071183;28;20327;-73
2022/10/13 02:06:31;;;;;;;9.45;2.20;;;;;;;;;;2071172;28;20495;-74
2022/10/13 02:07:54;;;;;;;12.43;2.42;;;;;;;;;;2071739;28;20034;-72
2022/10/13 02:09:19;;;;;;;9.48;2.70;;;;;;;;;;2071715;28;20483;-74
2022/10/13 02:10:47;;;;;;;4.90;2.08;;;;;;;;;;2070797;28;20037;-73
2022/10/13 02:12:09;;;;;;;9.48;2.40;;;;;;;;;;2071382;28;20038;-73
2022/10/13 02:13:28;;;;;;;10.50;2.40;;;;;;;;;;2071958;28;20038;-72
2022/10/13 02:14:49;;;;;;;9.82;2.58;;;;;;;;;;2070894;28;20105;-73
2022/10/13 02:16:08;;;;;;;9.30;2.72;;;;;;;;;;2068885;28;20026;-74
2022/10/13 02:17:29;;;;;;;8.25;2.20;;;;;;;;;;2072556;28;20037;-73
2022/10/13 02:18:48;;;;;;;12.88;2.35;;;;;;;;;;2070457;28;20596;-73
2022/10/13 02:20:08;;;;;;;6.93;2.17;;;;;;;;;;2071947;28;20034;-73
2022/10/13 02:21:27;;;;;;;8.60;2.17;;;;;;;;;;2071296;28;20487;-74
2022/10/13 02:22:47;;;;;;;7.22;2.60;;;;;;;;;;2070051;28;20037;-73
2022/10/13 02:24:07;;;;;;;6.95;2.25;;;;;;;;;;2072187;28;20034;-73
2022/10/13 02:25:26;;;;;;;7.00;2.30;;;;;;;;;;2069881;28;20038;-73
2022/10/13 02:26:46;;;;;;;9.32;2.65;;;;;;;;;;2068405;28;20034;-73
2022/10/13 02:28:05;;;;;;;8.55;2.50;;;;;;;;;;2070119;28;20033;-73
2022/10/13 02:29:24;;;;;;;7.13;2.47;;;;;;;;;;2072350;28;20082;-73
2022/10/13 02:30:44;;;;;;;11.32;2.60;;;;;;;;;;2067249;28;20066;-73
2022/10/13 02:32:03;;;;;;;7.95;2.85;;;;;;;;;;2073218;28;20034;-73
2022/10/13 02:33:22;;;;;;;13.32;3.45;;;;;;;;;;2071812;28;20077;-72
2022/10/13 02:34:41;;;;;;;5.40;2.30;;;;;;;;;;2070996;28;20061;-73
2022/10/13 02:36:00;;;;;;;9.43;3.10;;;;;;;;;;2070153;28;20026;-73
2022/10/13 02:37:19;;;;;;;10.77;2.60;;;;;;;;;;2072698;28;20030;-73
2022/10/13 02:38:37;;;;;;;9.52;2.78;;;;;;;;;;2070031;28;20460;-73
2022/10/13 02:39:56;;;;;;;8.95;2.25;;;;;;;;;;2070807;28;20045;-73
2022/10/13 02:41:15;;;;;;;12.10;2.55;;;;;;;;;;2071756;28;20042;-76
2022/10/13 02:42:34;;;;;;;13.30;3.03;;;;;;;;;;2069900;28;20038;-73
2022/10/13 02:43:53;;;;;;;8.52;3.22;;;;;;;;;;2068653;28;20112;-74
2022/10/13 02:45:12;;;;;;;9.18;2.90;;;;;;;;;;2071075;28;20030;-73
2022/10/13 02:46:31;;;;;;;7.38;2.47;;;;;;;;;;2087379;28;20041;-73
2022/10/13 02:47:50;;;;;;;7.88;2.55;;;;;;;;;;2089043;28;20030;-73
2022/10/13 02:49:09;;;;;;;8.73;2.40;;;;;;;;;;2089540;28;20033;-73
2022/10/13 02:50:28;;;;;;;11.43;3.35;;;;;;;;;;2087867;28;20111;-73
2022/10/13 02:51:47;;;;;;;10.55;3.17;;;;;;;;;;2087447;28;20116;-73
2022/10/13 02:53:06;;;;;;;6.65;2.13;;;;;;;;;;2088089;28;20045;-75
2022/10/13 02:54:25;;;;;;;9.73;2.35;;;;;;;;;;2089333;28;20029;-73
2022/10/13 02:55:43;;;;;;;10.43;3.53;;;;;;;;;;2079456;28;20117;-73
2022/10/13 02:57:03;;;;;;;10.23;4.13;;;;;;;;;;2084539;28;20033;-73
2022/10/13 02:58:22;;;;;;;16.20;3.42;;;;;;;;;;2079500;28;20022;-73
2022/10/13 02:59:40;;;;;;;6.03;3.08;;;;;;;;;;2077715;28;20041;-73
2022/10/13 03:01:06;;;;;;;11.10;3.45;;;;;;;;;;2084636;28;20041;-73
2022/10/13 03:02:25;;;;;;;8.00;3.63;;;;;;;;;;2087392;28;20441;-74
2022/10/13 03:03:44;;;;;;;6.50;3.45;;;;;;;;;;2086947;28;20453;-73
2022/10/13 03:05:03;;;;;;;12.05;4.25;;;;;;;;;;2089388;28;20068;-76
2022/10/13 03:06:22;;;;;;;10.82;3.78;;;;;;;;;;2087289;28;20068;-72
2022/10/13 03:07:41;;;;;;;12.27;4.05;;;;;;;;;;2086567;28;20021;-74
2022/10/13 03:09:00;;;;;;;9.80;3.78;;;;;;;;;;2088217;28;20108;-73
2022/10/13 03:10:19;;;;;;;10.48;4.07;;;;;;;;;;2088385;28;20069;-74
2022/10/13 03:11:38;;;;;;;17.58;3.58;;;;;;;;;;2087743;28;20429;-73
2022/10/13 03:12:58;;;;;;;7.13;3.40;;;;;;;;;;2087641;28;20029;-73
2022/10/13 03:14:17;;;;;;;11.10;3.65;;;;;;;;;;2085643;28;20025;-73
2022/10/13 03:15:36;;;;;;;9.88;4.03;;;;;;;;;;2077791;28;20026;-73
2022/10/13 03:16:55;;;;;;;17.58;4.10;;;;;;;;;;2083558;28;20041;-73
2022/10/13 03:18:13;;;;;;;10.13;4.20;;;;;;;;;;2088230;28;20071;-72
2022/10/13 03:19:33;;;;;;;11.77;3.55;;;;;;;;;;2087005;28;20065;-73
2022/10/13 03:20:56;;;;;;;8.57;3.72;;;;;;;;;;2088344;28;20041;-73
2022/10/13 03:22:15;;;;;;;12.20;3.72;;;;;;;;;;2086769;28;20486;-74
2022/10/13 03:23:34;;;;;;;9.75;3.80;;;;;;;;;;2077387;28;20030;-73
2022/10/13 03:24:53;;;;;;;7.35;3.28;;;;;;;;;;2083083;28;20137;-72
2022/10/13 03:26:12;;;;;;;15.63;3.53;;;;;;;;;;2088779;28;20021;-73
2022/10/13 03:27:31;;;;;;;10.95;3.03;;;;;;;;;;2087263;28;20482;-73
2022/10/13 03:28:50;;;;;;;12.13;3.20;;;;;;;;;;2088083;28;20029;-73
2022/10/13 03:30:09;;;;;;;8.52;2.55;;;;;;;;;;2087317;28;20029;-74
2022/10/13 03:31:28;;;;;;;11.18;3.00;;;;;;;;;;2087654;28;20474;-73
2022/10/13 03:32:47;;;;;;;7.90;2.85;;;;;;;;;;2089065;28;20037;-72
2022/10/13 03:34:07;;;;;;;7.28;3.00;;;;;;;;;;2078630;28;20112;-74
2022/10/13 03:35:26;;;;;;;10.13;3.53;;;;;;;;;;2084917;28;20052;-73
2022/10/13 03:36:45;;;;;;;8.43;3.95;;;;;;;;;;2086696;28;20394;-74
2022/10/13 03:38:04;;;;;;;9.85;3.17;;;;;;;;;;2086968;28;20025;-73
2022/10/13 03:39:22;;;;;;;13.90;4.22;;;;;;;;;;2087938;28;20024;-73
2022/10/13 03:40:41;;;;;;;8.90;3.35;;;;;;;;;;2088445;28;20489;-73
2022/10/13 03:42:00;;;;;;;13.52;3.35;;;;;;;;;;2086250;28;20033;-74
2022/10/13 03:43:19;;;;;;;12.50;4.43;;;;;;;;;;2088248;28;20032;-73
2022/10/13 03:44:38;;;;;;;12.55;3.45;;;;;;;;;;2084660;28;20029;-75
2022/10/13 03:45:58;;;;;;;13.57;4.15;;;;;;;;;;2087173;28;20468;-75
2022/10/13 03:47:17;;;;;;;12.40;3.95;;;;;;;;;;2085791;28;20029;-73
2022/10/13 03:48:36;;;;;;;10.80;3.63;;;;;;;;;;2083974;28;20018;-73
2022/10/13 03:49:55;;;;;;;9.35;4.05;;;;;;;;;;2085685;28;20581;-73
2022/10/13 03:51:18;;;;;;;8.70;4.25;;;;;;;;;;2088642;28;20028;-73
2022/10/13 03:52:37;;;;;;;;;;;;;;;;;;2086302;28;20037;-73
2022/10/13 03:53:56;;;;;;;11.13;4.10;;;;;;;;;;2085644;28;19905;-73
2022/10/13 03:55:15;;;;;;;12.98;4.38;;;;;;;;;;2086191;28;20128;-73
2022/10/13 03:56:35;;;;;;;12.90;4.57;;;;;;;;;;2087934;28;20036;-74
2022/10/13 03:57:54;;;;;;;17.02;4.00;;;;;;;;;;2087028;28;20108;-73
2022/10/13 03:59:15;;;;;;;8.55;3.78;;;;;;;;;;2088257;28;20041;-73
2022/10/13 04:00:34;;;;;;;13.13;3.97;;;;;;;;;;2077882;28;20037;-73
2022/10/13 04:01:53;;;;;;;10.38;5.00;;;;;;;;;;2083235;28;21677;-73
2022/10/13 04:03:12;;;;;;;9.70;4.65;;;;;;;;;;2087638;28;20029;-73
2022/10/13 04:04:31;;;;;;;14.70;5.80;;;;;;;;;;2079015;28;20406;-74
2022/10/13 04:05:50;;;;;;;13.45;5.22;;;;;;;;;;2076694;28;20030;-72
2022/10/13 04:07:09;;;;;;;12.95;5.38;;;;;;;;;;2076201;28;20511;-73
2022/10/13 04:08:28;;;;;;;11.95;5.03;;;;;;;;;;2083478;28;20033;-74
2022/10/13 04:09:47;;;;;;;7.93;4.22;;;;;;;;;;2088344;28;20037;-73
2022/10/13 04:11:08;;;;;;;7.80;4.47;;;;;;;;;;2088050;28;20053;-73
2022/10/13 04:12:27;;;;;;;18.13;4.70;;;;;;;;;;2086120;28;20128;-73
2022/10/13 04:13:46;;;;;;;14.23;4.88;;;;;;;;;;2088498;28;20036;-73
2022/10/13 04:15:05;;;;;;;14.02;4.03;;;;;;;;;;2086497;28;20483;-74
2022/10/13 04:16:28;;;;;;;14.50;4.43;;;;;;;;;;2079091;28;20112;-73
2022/10/13 04:17:47;;;;;;;15.27;4.70;;;;;;;;;;2083956;28;20041;-74
2022/10/13 04:19:06;;;;;;;17.10;4.93;;;;;;;;;;2088536;28;20037;-73
2022/10/13 04:20:25;;;;;;;11.25;4.15;;;;;;;;;;2087555;28;20112;-73
2022/10/13 04:21:44;;;;;;;14.10;4.53;;;;;;;;;;2087355;28;20033;-72
2022/10/13 04:23:03;;;;;;;8.80;4.30;;;;;;;;;;2085245;28;20033;-73
2022/10/13 04:24:22;;;;;;;13.00;4.72;;;;;;;;;;2087535;28;20429;-73
2022/10/13 04:25:41;;;;;;;8.60;4.57;;;;;;;;;;2088650;28;20409;-72
2022/10/13 04:27:00;;;;;;;13.80;4.57;;;;;;;;;;2088592;28;20112;-72
2022/10/13 04:28:19;;;;;;;20.17;4.70;;;;;;;;;;2085670;28;20025;-73
2022/10/13 04:29:38;;;;;;;16.17;4.22;;;;;;;;;;2086717;28;20033;-73
2022/10/13 04:30:57;;;;;;;12.68;4.57;;;;;;;;;;2086257;28;20040;-74
2022/10/13 04:32:16;;;;;;;12.82;4.25;;;;;;;;;;2079415;28;20108;-73
2022/10/13 04:33:35;;;;;;;15.25;4.38;;;;;;;;;;2073801;28;20038;-73
2022/10/13 04:34:54;;;;;;;8.98;4.15;;;;;;;;;;2084382;28;20029;-73
2022/10/13 04:36:13;;;;;;;13.27;4.82;;;;;;;;;;2086130;28;20037;-72
2022/10/13 04:37:32;;;;;;;13.32;6.13;;;;;;;;;;2076175;28;20450;-73
2022/10/13 04:38:50;;;;;;;14.60;6.45;;;;;;;;;;2083257;28;20028;-75
2022/10/13 04:40:09;;;;;;;8.93;5.72;;;;;;;;;;2077818;28;20037;-73
2022/10/13 04:41:28;;;;;;;15.48;5.43;;;;;;;;;;2084582;28;20107;-73
2022/10/13 04:42:47;;;;;;;17.27;5.45;;;;;;;;;;2087952;28;20041;-73
2022/10/13 04:44:07;;;;;;;9.30;4.97;;;;;;;;;;2088739;28;20033;-73
2022/10/13 04:45:26;;;;;;;11.45;4.30;;;;;;;;;;2085604;28;20052;-74
2022/10/13 04:46:45;;;;;;;8.38;5.00;;;;;;;;;;2087581;28;20397;-73
2022/10/13 04:48:04;;;;;;;9.13;5.53;;;;;;;;;;2087111;28;20034;-73
2022/10/13 04:49:24;;;;;;;15.30;5.15;;;;;;;;;;2079779;28;20017;-74
2022/10/13 04:50:43;;;;;;;9.90;4.63;;;;;;;;;;2083225;28;20040;-72
2022/10/13 04:52:02;;;;;;;14.57;5.13;;;;;;;;;;2075539;28;20113;-73
2022/10/13 04:53:22;;;;;;;10.68;5.72;;;;;;;;;;2082084;28;20029;-73
2022/10/13 04:54:42;;;;;;;12.45;5.57;;;;;;;;;;2079208;28;20026;-73
2022/10/13 04:56:02;;;;;;;13.20;5.82;;;;;;;;;;2076836;28;20411;-73
2022/10/13 04:57:20;;;;;;;14.27;6.40;;;;;;;;;;2082542;28;20061;-75
2022/10/13 04:58:40;;;;;;;11.85;5.53;;;;;;;;;;2085524;28;20028;-73
2022/10/13 04:59:59;;;;;;;22.25;6.03;;;;;;;;;;2085774;28;20137;-74
2022/10/13 05:01:20;;;;;;;10.68;5.28;;;;;;;;;;2086190;28;20021;-74
2022/10/13 05:02:39;;;;;;;10.18;5.95;;;;;;;;;;2078138;28;20117;-74
2022/10/13 05:03:59;;;;;;;7.03;5.40;;;;;;;;;;2082844;28;20057;-73
2022/10/13 05:05:18;;;;;;;10.88;5.25;;;;;;;;;;2077801;28;20449;-73
2022/10/13 05:06:39;;;;;;;14.20;5.97;;;;;;;;;;2072104;28;20026;-74
2022/10/13 05:07:57;;;;;;;13.73;6.28;;;;;;;;;;2081488;28;20029;-73
2022/10/13 05:09:16;;;;;;;12.13;5.97;;;;;;;;;;2086973;28;20025;-73
2022/10/13 05:10:35;;;;;;;10.57;5.28;;;;;;;;;;2079724;28;20029;-75
2022/10/13 05:11:54;;;;;;;11.38;5.85;;;;;;;;;;2078759;28;20029;-75
2022/10/13 05:13:13;;;;;;;18.13;6.05;;;;;;;;;;2083082;28;20033;-78
2022/10/13 05:14:33;;;;;;;13.60;5.60;;;;;;;;;;2076858;28;20490;-74
2022/10/13 05:15:52;;;;;;;10.88;4.95;;;;;;;;;;2081943;28;20037;-73
2022/10/13 05:17:11;;;;;;;20.05;5.20;;;;;;;;;;2078198;28;20522;-74
2022/10/13 05:18:30;;;;;;;11.57;5.68;;;;;;;;;;2083788;28;20408;-75
2022/10/13 05:19:49;;;;;;;13.02;5.03;;;;;;;;;;2087306;28;20041;-74
2022/10/13 05:21:18;;;;;;;13.70;5.78;;;;;;;;;;2087217;28;20482;-74
2022/10/13 05:22:37;;;;;;;14.02;5.95;;;;;;;;;;2086707;28;20068;-74
2022/10/13 05:23:56;;;;;;;12.65;5.18;;;;;;;;;;2086059;28;20025;-73
2022/10/13 05:25:15;;;;;;;10.90;5.28;;;;;;;;;;2088284;28;20025;-74
2022/10/13 05:26:34;;;;;;;13.50;5.25;;;;;;;;;;2086219;28;20049;-75
2022/10/13 05:27:53;;;;;;;12.13;5.50;;;;;;;;;;2087172;28;20037;-75
2022/10/13 05:29:12;;;;;;;10.57;5.70;;;;;;;;;;2077210;28;20041;-75
2022/10/13 05:30:31;;;;;;;12.15;5.35;;;;;;;;;;2071406;28;20487;-75
2022/10/13 05:31:50;;;;;;;11.30;5.00;;;;;;;;;;2071294;28;20033;-74
2022/10/13 05:33:09;;;;;;;11.60;5.00;;;;;;;;;;2073840;28;20029;-75
2022/10/13 05:34:28;;;;;;;16.75;4.75;;;;;;;;;;2073563;28;20029;-74
2022/10/13 05:35:47;;;;;;;14.80;5.38;;;;;;;;;;2084790;28;20445;-74
2022/10/13 05:37:06;;;;;;;13.48;5.75;;;;;;;;;;2084941;28;20036;-73
2022/10/13 05:38:24;;;;;;;17.33;6.10;;;;;;;;;;2085975;28;20029;-75
2022/10/13 05:39:43;;;;;;;10.00;5.20;;;;;;;;;;2086112;28;20095;-73
2022/10/13 05:41:06;;;;;;;11.38;4.90;;;;;;;;;;2086126;28;20037;-76
2022/10/13 05:42:27;;;;;;;13.27;5.07;;;;;;;;;;2086210;28;20142;-76
2022/10/13 05:43:46;;;;;;;17.00;5.22;;;;;;;;;;2085750;28;20028;-73
2022/10/13 05:45:08;;;;;;;13.57;5.25;;;;;;;;;;2085981;28;20214;-74
2022/10/13 05:46:27;;;;;;;11.35;4.85;;;;;;;;;;2075752;28;20042;-74
2022/10/13 05:47:46;;;;;;;14.55;5.82;;;;;;;;;;2082571;28;20390;-74
2022/10/13 05:49:05;;;;;;;14.63;5.78;;;;;;;;;;2086942;28;20017;-73
2022/10/13 05:50:24;;;;;;;9.73;4.95;;;;;;;;;;2085377;28;20354;-74
2022/10/13 05:51:45;;;;;;;7.32;4.28;;;;;;;;;;2089095;28;20394;-76
2022/10/13 05:53:04;;;;;;;9.18;5.05;;;;;;;;;;2077905;28;20426;-75
2022/10/13 05:54:25;;;;;;;10.27;5.00;;;;;;;;;;2081911;28;21329;-75
2022/10/13 05:55:44;;;;;;;13.90;4.53;;;;;;;;;;2078567;28;20021;-77
2022/10/13 05:57:11;;;;;;;15.38;4.50;;;;;;;;;;2080772;28;20071;-74
2022/10/13 05:58:50;;;;;;;14.65;4.30;;;;;;;;;;2086328;28;20028;-75
2022/10/13 06:00:10;;;;;;;13.45;5.07;;;;;;;;;;2078960;28;20522;-74
2022/10/13 06:01:31;;;;;;;10.77;4.65;;;;;;;;;;2076896;28;20098;-74
2022/10/13 06:02:52;;;;;;;12.13;5.40;;;;;;;;;;2076036;28;20033;-75
2022/10/13 06:04:20;;;;;;;13.60;4.78;;;;;;;;;;2078162;28;20097;-74
2022/10/13 06:05:41;;;;;;;9.52;4.07;;;;;;;;;;2084167;28;20029;-73
2022/10/13 06:07:00;;;;;;;10.02;5.03;;;;;;;;;;2080223;28;20025;-74
2022/10/13 06:08:19;;;;;;;12.13;4.47;;;;;;;;;;2083969;28;20059;-74
2022/10/13 06:09:38;;;;;;;13.90;4.82;;;;;;;;;;2084765;28;20032;-73
2022/10/13 06:10:57;;;;;;;14.18;4.40;;;;;;;;;;2084133;28;20037;-73
2022/10/13 06:12:17;;;;;;;14.00;4.45;;;;;;;;;;2079186;28;20065;-73
2022/10/13 06:13:36;;;;;;;13.30;4.93;;;;;;;;;;2085589;28;20147;-74
2022/10/13 06:14:55;;;;;;;9.75;4.53;;;;;;;;;;2079993;28;20022;-73
2022/10/13 06:16:14;;;;;;;9.73;4.30;;;;;;;;;;2085633;28;20029;-73
2022/10/13 06:17:37;;;;;;;10.68;4.05;;;;;;;;;;2089253;28;20028;-74
2022/10/13 06:18:56;;;;;;;;;;;;;;;;;;2081792;28;20401;-72
2022/10/13 06:20:15;;;;;;;9.70;4.15;;;;;;;;;;2085043;28;19905;-73
2022/10/13 06:21:34;;;;;;;9.23;4.60;;;;;;;;;;2078996;28;20029;-72
2022/10/13 06:22:56;;;;;;;10.75;4.78;;;;;;;;;;2076610;28;20505;-75
2022/10/13 06:24:15;;;;;;;14.38;5.43;;;;;;;;;;2076639;28;20071;-73
2022/10/13 06:25:34;;;;;;;11.25;4.25;;;;;;;;;;2086076;28;20025;-73
2022/10/13 06:26:53;;;;;;;21.58;4.60;;;;;;;;;;2080679;28;20029;-73
2022/10/13 06:28:12;;;;;;;8.18;4.50;;;;;;;;;;2085071;28;20029;-73
2022/10/13 06:29:32;;;;;;;13.88;4.95;;;;;;;;;;2087680;28;20804;-75
2022/10/13 06:30:55;;;;;;;13.32;4.22;;;;;;;;;;2088262;28;20593;-73
2022/10/13 06:32:14;;;;;;;13.48;4.40;;;;;;;;;;2089528;28;20037;-73
2022/10/13 06:33:33;;;;;;;9.40;3.80;;;;;;;;;;2089218;28;20029;-72
2022/10/13 06:34:52;;;;;;;13.70;4.47;;;;;;;;;;2086995;28;20033;-73
2022/10/13 06:36:11;;;;;;;12.45;4.20;;;;;;;;;;2079311;28;20031;-71
2022/10/13 06:37:30;;;;;;;14.48;4.10;;;;;;;;;;2077302;28;20042;-72
2022/10/13 06:38:49;;;;;;;12.02;4.03;;;;;;;;;;2083693;28;20033;-73
2022/10/13 06:40:08;;;;;;;10.40;4.40;;;;;;;;;;2087373;28;20045;-75
2022/10/13 06:41:27;;;;;;;12.88;4.13;;;;;;;;;;2080560;28;20034;-73
2022/10/13 06:42:49;;;;;;;13.52;4.65;;;;;;;;;;2077302;28;20479;-72
2022/10/13 06:44:08;;;;;;;9.00;3.90;;;;;;;;;;2085920;28;20025;-72
2022/10/13 06:45:27;;;;;;;8.95;4.20;;;;;;;;;;2086706;28;20045;-73
2022/10/13 06:46:46;;;;;;;7.55;4.03;;;;;;;;;;2086861;28;20041;-73
2022/10/13 06:48:05;;;;;;;10.80;4.13;;;;;;;;;;2088264;28;20113;-73
2022/10/13 06:49:25;;;;;;;12.30;4.13;;;;;;;;;;2072679;28;20053;-73
2022/10/13 06:50:44;;;;;;;5.40;3.97;;;;;;;;;;2071106;28;20037;-73
2022/10/13 06:52:04;;;;;;;7.38;3.53;;;;;;;;;;2076554;28;20033;-76
2022/10/13 06:53:23;;;;;;;13.23;4.25;;;;;;;;;;2084063;28;20029;-79
2022/10/13 06:54:42;;;;;;;9.45;3.85;;;;;;;;;;2079522;28;20414;-74
2022/10/13 06:56:01;;;;;;;15.73;4.22;;;;;;;;;;2084908;28;20624;-73
2022/10/13 06:57:20;;;;;;;13.60;4.43;;;;;;;;;;2080542;28;20026;-73
2022/10/13 06:58:39;;;;;;;11.50;3.42;;;;;;;;;;2083973;28;20785;-73
2022/10/13 06:59:58;;;;;;;9.32;3.17;;;;;;;;;;2088636;28;20049;-73
2022/10/13 07:01:17;;;;;;;15.13;4.68;;;;;;;;;;2079962;28;20439;-74
2022/10/13 07:02:37;;;;;;;8.48;3.63;;;;;;;;;;2085974;28;20581;-73
2022/10/13 07:03:55;;;;;;;10.27;3.70;;;;;;;;;;2088433;28;20041;-73
2022/10/13 07:05:14;;;;;;;14.95;4.15;;;;;;;;;;2088317;28;20029;-74
2022/10/13 07:06:33;;;;;;;11.57;3.60;;;;;;;;;;2088806;28;20029;-73
2022/10/13 07:07:53;;;;;;;11.20;3.80;;;;;;;;;;2089091;28;20068;-74
2022/10/13 07:09:13;;;;;;;12.15;3.55;;;;;;;;;;2088523;28;20021;-73
2022/10/13 07:10:31;;;;;;;8.55;3.25;;;;;;;;;;2079838;28;20041;-73
2022/10/13 07:11:50;;;;;;;8.27;3.30;;;;;;;;;;2085075;28;20020;-73
2022/10/13 07:13:10;;;;;;;8.02;3.13;;;;;;;;;;2089001;28;20457;-72
2022/10/13 07:14:29;;;;;;;7.28;3.25;;;;;;;;;;2089369;28;20116;-73
2022/10/13 07:15:48;;;;;;;9.70;3.17;;;;;;;;;;2087436;28;20144;-73
2022/10/13 07:17:07;;;;;;;13.60;3.80;;;;;;;;;;2089001;28;20052;-72
2022/10/13 07:18:26;;;;;;;8.80;3.40;;;;;;;;;;2079625;28;20514;-72
2022/10/13 07:19:47;;;;;;;10.45;3.83;;;;;;;;;;2076280;28;20037;-73
2022/10/13 07:21:06;;;;;;;9.32;3.33;;;;;;;;;;2084454;28;20390;-74
2022/10/13 07:22:25;;;;;;;8.85;3.42;;;;;;;;;;2088476;28;20498;-73
2022/10/13 07:23:44;;;;;;;7.22;3.58;;;;;;;;;;2086474;28;20025;-75
2022/10/13 07:25:04;;;;;;;8.23;3.28;;;;;;;;;;2087447;28;20386;-74
2022/10/13 07:26:23;;;;;;;8.48;3.35;;;;;;;;;;2086660;28;20041;-73
2022/10/13 07:27:43;;;;;;;9.80;3.78;;;;;;;;;;2087389;28;20036;-73
2022/10/13 07:29:02;;;;;;;7.53;3.28;;;;;;;;;;2088958;28;20033;-73
2022/10/13 07:30:21;;;;;;;8.80;3.05;;;;;;;;;;2078538;28;20498;-72
2022/10/13 07:31:41;;;;;;;7.75;3.17;;;;;;;;;;2083292;28;20029;-74
2022/10/13 07:33:00;;;;;;;8.70;3.30;;;;;;;;;;2087318;28;20402;-73
2022/10/13 07:34:19;;;;;;;10.23;3.58;;;;;;;;;;2087872;28;20041;-73
2022/10/13 07:35:38;;;;;;;7.35;3.45;;;;;;;;;;2079645;28;20530;-74
2022/10/13 07:36:57;;;;;;;14.35;3.60;;;;;;;;;;2084772;28;20029;-74
2022/10/13 07:38:16;;;;;;;8.75;3.40;;;;;;;;;;2088160;28;20030;-73
2022/10/13 07:39:35;;;;;;;12.70;3.40;;;;;;;;;;2089165;28;20025;-73
2022/10/13 07:40:54;;;;;;;11.77;3.40;;;;;;;;;;2087004;28;20033;-74
2022/10/13 07:42:13;;;;;;;13.23;3.67;;;;;;;;;;2088148;28;20030;-73
2022/10/13 07:43:32;;;;;;;7.93;3.42;;;;;;;;;;2087839;28;20029;-73
2022/10/13 07:44:51;;;;;;;6.80;3.30;;;;;;;;;;2087818;28;20017;-75
2022/10/13 07:46:13;;;;;;;7.68;3.63;;;;;;;;;;2087784;28;20080;-74
2022/10/13 07:47:33;;;;;;;11.63;3.55;;;;;;;;;;2087521;28;20045;-73
2022/10/13 07:48:52;;;;;;;9.85;2.97;;;;;;;;;;2087620;28;20105;-75
2022/10/13 07:50:11;;;;;;;9.27;3.35;;;;;;;;;;2087723;28;20440;-74
2022/10/13 07:51:30;;;;;;;7.97;3.38;;;;;;;;;;2086378;28;20025;-73
2022/10/13 07:52:48;;;;;;;6.55;3.05;;;;;;;;;;2088625;28;20041;-73
2022/10/13 07:54:07;;;;;;;9.70;3.20;;;;;;;;;;2088291;28;20033;-74
2022/10/13 07:55:26;;;;;;;11.70;3.78;;;;;;;;;;2088777;28;20033;-75
2022/10/13 07:56:45;;;;;;;11.55;3.70;;;;;;;;;;2087316;28;20506;-73
2022/10/13 07:58:04;;;;;;;11.95;3.83;;;;;;;;;;2088717;28;20040;-73
2022/10/13 07:59:24;;;;;;;9.50;3.10;;;;;;;;;;2077675;28;20113;-73